Time,TemperatureF,DewpointF,PressureIn,WindDirection,WindDirectionDegrees,WindSpeedMPH,WindSpeedGustMPH,Humidity,HourlyPrecipIn,Conditions,Clouds,dailyrainin,SolarRadiationWatts/m^2,SoftwareType,DateUTC
2013-06-22 10:02:00,59.0,58.0,-100.00,East,96,5.0,13.0,96,0.00,,,0.05,61.000000,,2013-06-22 15:02:00,
2013-06-22 10:22:00,64.0,61.0,-100.00,East,93,7.0,16.0,91,0.00,,,0.04,278.000000,,2013-06-22 15:22:00,
2013-06-22 10:34:00,64.0,61.0,-100.00,East,93,7.0,16.0,91,0.00,,,0.04,278.000000,,2013-06-22 15:34:00,
2013-06-22 10:43:00,64.0,61.0,-100.00,East,93,7.0,16.0,91,0.00,,,0.04,278.000000,,2013-06-22 15:43:00,
2013-06-22 10:53:00,64.0,61.0,-100.00,East,93,7.0,16.0,91,0.00,,,0.04,278.000000,,2013-06-22 15:53:00,
2013-06-22 11:02:00,64.0,61.0,-100.00,East,93,7.0,16.0,91,0.00,,,0.04,278.000000,,2013-06-22 16:02:00,
2013-06-22 11:22:00,63.0,59.0,-100.00,East,100,6.0,15.0,86,0.00,,,0.04,312.000000,,2013-06-22 16:22:00,
2013-06-22 11:34:00,63.0,59.0,-100.00,East,100,6.0,15.0,86,0.00,,,0.04,312.000000,,2013-06-22 16:34:00,
2013-06-22 11:43:00,63.0,59.0,-100.00,East,100,6.0,15.0,86,0.00,,,0.04,312.000000,,2013-06-22 16:43:00,
2013-06-22 11:52:00,63.0,59.0,-100.00,East,100,6.0,15.0,86,0.00,,,0.04,312.000000,,2013-06-22 16:52:00,
2013-06-22 12:02:00,63.0,59.0,-100.00,East,100,6.0,15.0,86,0.00,,,0.04,312.000000,,2013-06-22 17:02:00,
2013-06-22 12:22:00,63.0,60.0,-100.00,ESE,113,5.0,12.0,89,0.00,,,0.04,127.000000,,2013-06-22 17:22:00,
2013-06-22 12:34:00,63.0,60.0,-100.00,ESE,113,5.0,12.0,89,0.00,,,0.04,127.000000,,2013-06-22 17:34:00,
2013-06-22 12:43:00,63.0,60.0,-100.00,ESE,113,5.0,12.0,89,0.00,,,0.04,127.000000,,2013-06-22 17:43:00,
2013-06-22 12:52:00,63.0,60.0,-100.00,ESE,113,5.0,12.0,89,0.00,,,0.04,127.000000,,2013-06-22 17:52:00,
2013-06-22 13:02:00,63.0,60.0,-100.00,ESE,113,5.0,12.0,89,0.00,,,0.04,127.000000,,2013-06-22 18:02:00,
2013-06-22 13:23:00,63.0,58.0,-100.00,SE,133,6.0,16.0,85,0.00,,,0.04,156.000000,,2013-06-22 18:23:00,
2013-06-22 13:34:00,63.0,58.0,-100.00,SE,133,6.0,16.0,85,0.00,,,0.04,156.000000,,2013-06-22 18:34:00,
2013-06-22 13:43:00,63.0,58.0,-100.00,SE,133,6.0,16.0,85,0.00,,,0.04,156.000000,,2013-06-22 18:43:00,
2013-06-22 13:52:00,63.0,58.0,-100.00,SE,133,6.0,16.0,85,0.00,,,0.04,156.000000,,2013-06-22 18:52:00,
2013-06-22 14:01:00,63.0,58.0,-100.00,SE,133,6.0,16.0,85,0.00,,,0.04,156.000000,,2013-06-22 19:01:00,
2013-06-22 14:22:00,64.0,59.0,-100.00,SSE,155,8.0,15.0,85,0.00,,,0.04,167.000000,,2013-06-22 19:22:00,
2013-06-22 14:33:00,64.0,59.0,-100.00,SSE,155,8.0,15.0,85,0.00,,,0.04,167.000000,,2013-06-22 19:33:00,
2013-06-22 14:43:00,64.0,59.0,-100.00,SSE,155,8.0,15.0,85,0.00,,,0.04,167.000000,,2013-06-22 19:43:00,
2013-06-22 14:53:00,64.0,59.0,-100.00,SSE,155,8.0,15.0,85,0.00,,,0.04,167.000000,,2013-06-22 19:53:00,
2013-06-22 15:02:00,64.0,59.0,-100.00,SSE,155,8.0,15.0,85,0.00,,,0.04,167.000000,,2013-06-22 20:02:00,
2013-06-22 15:22:00,63.0,59.0,-100.00,ESE,121,4.0,15.0,86,0.00,,,0.04,124.000000,,2013-06-22 20:22:00,
2013-06-22 15:34:00,63.0,59.0,-100.00,ESE,121,4.0,15.0,86,0.00,,,0.04,124.000000,,2013-06-22 20:34:00,
2013-06-22 15:43:00,63.0,59.0,-100.00,ESE,121,4.0,15.0,86,0.00,,,0.04,124.000000,,2013-06-22 20:43:00,
2013-06-22 15:53:00,63.0,59.0,-100.00,ESE,121,4.0,15.0,86,0.00,,,0.04,124.000000,,2013-06-22 20:53:00,
2013-06-22 16:01:00,63.0,59.0,-100.00,ESE,121,4.0,15.0,86,0.00,,,0.04,124.000000,,2013-06-22 21:01:00,
2013-06-22 16:22:00,63.0,59.0,-100.00,ESE,120,5.0,9.0,87,0.00,,,0.04,92.000000,,2013-06-22 21:22:00,
2013-06-22 16:34:00,63.0,59.0,-100.00,ESE,120,5.0,9.0,87,0.00,,,0.04,92.000000,,2013-06-22 21:34:00,
2013-06-22 16:43:00,63.0,59.0,-100.00,ESE,120,5.0,9.0,87,0.00,,,0.04,92.000000,,2013-06-22 21:43:00,
2013-06-22 16:53:00,63.0,59.0,-100.00,ESE,120,5.0,9.0,87,0.00,,,0.04,92.000000,,2013-06-22 21:53:00,
2013-06-22 17:02:00,63.0,59.0,-100.00,ESE,120,5.0,9.0,87,0.00,,,0.04,92.000000,,2013-06-22 22:02:00,
2013-06-22 17:23:00,63.0,59.0,-100.00,ESE,113,3.0,10.0,87,0.00,,,0.04,66.000000,,2013-06-22 22:23:00,
2013-06-22 17:33:00,63.0,59.0,-100.00,ESE,113,3.0,10.0,87,0.00,,,0.04,66.000000,,2013-06-22 22:33:00,
2013-06-22 17:43:00,63.0,59.0,-100.00,ESE,113,3.0,10.0,87,0.00,,,0.04,66.000000,,2013-06-22 22:43:00,
2013-06-22 17:52:00,63.0,59.0,-100.00,ESE,113,3.0,10.0,87,0.00,,,0.04,66.000000,,2013-06-22 22:52:00,
2013-06-22 18:01:00,63.0,59.0,-100.00,ESE,113,3.0,10.0,87,0.00,,,0.04,66.000000,,2013-06-22 23:01:00,
2013-06-22 18:22:00,62.0,58.0,-100.00,ESE,120,4.0,10.0,88,0.00,,,0.04,68.000000,,2013-06-22 23:22:00,
2013-06-22 18:34:00,62.0,58.0,-100.00,ESE,120,4.0,10.0,88,0.00,,,0.04,68.000000,,2013-06-22 23:34:00,
2013-06-22 18:43:00,62.0,58.0,-100.00,ESE,120,4.0,10.0,88,0.00,,,0.04,68.000000,,2013-06-22 23:43:00,
2013-06-22 18:52:00,62.0,58.0,-100.00,ESE,120,4.0,10.0,88,0.00,,,0.04,68.000000,,2013-06-22 23:52:00,
2013-06-22 19:01:00,62.0,58.0,-100.00,ESE,120,4.0,10.0,88,0.00,,,0.04,68.000000,,2013-06-23 00:01:00,
2013-06-22 19:22:00,61.0,58.0,-100.00,ESE,115,5.0,9.0,90,0.00,,,0.04,44.000000,,2013-06-23 00:22:00,
2013-06-22 19:34:00,61.0,58.0,-100.00,ESE,115,5.0,9.0,90,0.00,,,0.04,44.000000,,2013-06-23 00:34:00,
2013-06-22 19:42:00,61.0,58.0,-100.00,ESE,115,5.0,9.0,90,0.00,,,0.04,44.000000,,2013-06-23 00:42:00,
2013-06-22 19:53:00,61.0,58.0,-100.00,ESE,115,5.0,9.0,90,0.00,,,0.04,44.000000,,2013-06-23 00:53:00,
2013-06-22 20:01:00,61.0,58.0,-100.00,ESE,115,5.0,9.0,90,0.00,,,0.04,44.000000,,2013-06-23 01:01:00,
2013-06-22 20:22:00,61.0,59.0,-100.00,ESE,119,5.0,12.0,93,0.01,,,0.05,71.000000,,2013-06-23 01:22:00,
2013-06-22 20:32:00,61.0,59.0,-100.00,ESE,119,5.0,12.0,93,0.01,,,0.05,71.000000,,2013-06-23 01:32:00,
2013-06-22 20:42:00,61.0,59.0,-100.00,ESE,119,5.0,12.0,93,0.01,,,0.05,71.000000,,2013-06-23 01:42:00,
2013-06-22 20:52:00,61.0,59.0,-100.00,ESE,119,5.0,12.0,93,0.01,,,0.05,71.000000,,2013-06-23 01:52:00,
2013-06-22 21:01:00,61.0,59.0,-100.00,ESE,119,5.0,12.0,93,0.01,,,0.05,71.000000,,2013-06-23 02:01:00,
2013-06-22 21:21:00,60.0,58.0,-100.00,ESE,118,5.0,9.0,93,0.00,,,0.05,8.000000,,2013-06-23 02:21:00,
2013-06-22 21:31:00,60.0,58.0,-100.00,ESE,118,5.0,9.0,93,0.00,,,0.05,8.000000,,2013-06-23 02:31:00,
2013-06-22 21:41:00,60.0,58.0,-100.00,ESE,118,5.0,9.0,93,0.00,,,0.05,8.000000,,2013-06-23 02:41:00,
2013-06-22 21:52:00,60.0,58.0,-100.00,ESE,118,5.0,9.0,93,0.00,,,0.05,8.000000,,2013-06-23 02:52:00,
2013-06-22 22:01:00,60.0,58.0,-100.00,ESE,118,5.0,9.0,93,0.00,,,0.05,8.000000,,2013-06-23 03:01:00,
2013-06-22 22:21:00,59.0,57.0,-100.00,SE,126,4.0,10.0,93,0.00,,,0.05,1.000000,,2013-06-23 03:21:00,
2013-06-22 22:31:00,59.0,57.0,-100.00,SE,126,4.0,10.0,93,0.00,,,0.05,1.000000,,2013-06-23 03:31:00,
2013-06-22 22:41:00,59.0,57.0,-100.00,SE,126,4.0,10.0,93,0.00,,,0.05,1.000000,,2013-06-23 03:41:00,
2013-06-22 22:52:00,59.0,57.0,-100.00,SE,126,4.0,10.0,93,0.00,,,0.05,1.000000,,2013-06-23 03:52:00,
2013-06-22 23:01:00,59.0,57.0,-100.00,SE,126,4.0,10.0,93,0.00,,,0.05,1.000000,,2013-06-23 04:01:00,
2013-06-22 23:21:00,59.0,57.0,-100.00,ESE,107,4.0,8.0,94,0.00,,,0.05,0.000000,,2013-06-23 04:21:00,
2013-06-22 23:31:00,59.0,57.0,-100.00,ESE,107,4.0,8.0,94,0.00,,,0.05,0.000000,,2013-06-23 04:31:00,
2013-06-22 23:42:00,59.0,57.0,-100.00,ESE,107,4.0,8.0,94,0.00,,,0.05,0.000000,,2013-06-23 04:42:00,
2013-06-22 23:52:00,59.0,57.0,-100.00,ESE,107,4.0,8.0,94,0.00,,,0.05,0.000000,,2013-06-23 04:52:00,